Time;durP1;ratioP1;P1;durP2;ratioP2;P2;SDS_P1;SDS_P2;PMS_P1;PMS_P2;Temp;Humidity;BMP_temperature;BMP_pressure;BME280_temperature;BME280_humidity;BME280_pressure;Samples;Min_cycle;Max_cycle;Signal;HPM_P1;HPM_P2
2024/01/11 00:02:23;;;;;;;9.50;4.88;;;;;;;2.72;100.00;103138.78;5036717;28;20081;-77
2024/01/11 00:04:49;;;;;;;6.47;3.60;;;;;;;2.73;100.00;103138.75;5020326;28;20064;-77
2024/01/11 00:07:15;;;;;;;8.02;5.15;;;;;;;2.76;100.00;103135.09;5036868;28;20071;-77
2024/01/11 00:09:42;;;;;;;8.18;4.88;;;;;;;2.80;100.00;103131.34;5020315;28;20037;-77
2024/01/11 00:12:08;;;;;;;8.13;5.10;;;;;;;2.82;100.00;103138.31;5052823;28;20021;-77
2024/01/11 00:14:33;;;;;;;6.63;4.63;;;;;;;2.79;100.00;103138.47;5052621;28;20108;-77
2024/01/11 00:16:59;;;;;;;6.60;4.35;;;;;;;2.78;100.00;103144.72;5036627;28;20151;-77
2024/01/11 00:19:25;;;;;;;7.28;4.47;;;;;;;2.78;100.00;103141.19;5036550;28;20424;-77
2024/01/11 00:21:50;;;;;;;7.75;4.75;;;;;;;2.81;100.00;103146.38;5020133;28;20029;-77
2024/01/11 00:24:16;;;;;;;6.43;4.20;;;;;;;2.82;100.00;103150.75;5020162;28;20047;-77
2024/01/11 00:26:42;;;;;;;7.82;5.07;;;;;;;2.81;100.00;103149.03;5019127;28;20149;-77
2024/01/11 00:29:07;;;;;;;6.47;4.80;;;;;;;2.81;100.00;103146.38;5036415;28;20059;-77
2024/01/11 00:31:33;;;;;;;8.45;4.30;;;;;;;2.82;100.00;103148.94;5019804;28;20375;-77
2024/01/11 00:33:59;;;;;;;8.30;4.45;;;;;;;2.87;100.00;103143.44;5019773;28;20093;-77
2024/01/11 00:36:25;;;;;;;6.32;4.53;;;;;;;2.90;100.00;103153.09;5019564;28;20075;-77
2024/01/11 00:38:50;;;;;;;6.72;4.45;;;;;;;2.95;100.00;103159.91;5036268;28;20092;-77
2024/01/11 00:41:16;;;;;;;7.18;4.93;;;;;;;3.02;100.00;103156.06;5020067;28;20037;-77
2024/01/11 00:43:42;;;;;;;8.90;4.85;;;;;;;3.14;100.00;103159.97;5003406;28;20036;-77
2024/01/11 00:46:08;;;;;;;7.18;5.00;;;;;;;3.15;100.00;103160.81;5019785;28;20048;-77
2024/01/11 00:48:34;;;;;;;10.13;7.43;;;;;;;3.11;100.00;103156.59;5052212;28;20100;-77
2024/01/11 00:50:59;;;;;;;9.52;6.07;;;;;;;3.02;100.00;103157.88;5019711;28;20068;-77
2024/01/11 00:53:30;;;;;;;6.53;5.13;;;;;;;2.98;100.00;103157.13;5019616;28;20032;-77
2024/01/11 00:55:59;;;;;;;6.10;4.20;;;;;;;3.02;100.00;103153.41;5020284;28;20033;-76
2024/01/11 00:58:25;;;;;;;7.38;4.50;;;;;;;3.01;100.00;103164.94;5052155;28;20118;-77
2024/01/11 01:00:52;;;;;;;5.85;4.20;;;;;;;3.03;100.00;103159.59;5019627;28;20479;-77
2024/01/11 01:03:19;;;;;;;7.18;4.05;;;;;;;3.04;100.00;103151.56;5035944;28;20082;-77
2024/01/11 01:05:45;;;;;;;6.72;4.28;;;;;;;3.09;100.00;103157.50;5052373;28;20029;-77
2024/01/11 01:08:11;;;;;;;6.05;4.75;;;;;;;3.12;100.00;103155.63;5019242;28;20503;-77
2024/01/11 01:10:37;;;;;;;8.57;5.28;;;;;;;3.07;100.00;103156.72;5035944;28;20510;-77
2024/01/11 01:13:03;;;;;;;6.72;4.63;;;;;;;3.07;100.00;103158.53;5019484;28;20045;-77
2024/01/11 01:15:29;;;;;;;7.10;5.30;;;;;;;3.04;100.00;103148.91;5019401;28;20040;-77
2024/01/11 01:17:54;;;;;;;6.10;4.30;;;;;;;3.02;100.00;103156.06;5035824;28;20041;-77
2024/01/11 01:20:20;;;;;;;7.85;5.03;;;;;;;3.06;100.00;103152.31;5019418;28;20463;-77
2024/01/11 01:22:46;;;;;;;5.85;4.15;;;;;;;3.19;100.00;103162.41;5020008;28;20035;-77
2024/01/11 01:25:12;;;;;;;6.22;4.10;;;;;;;3.19;100.00;103165.94;5019203;28;20487;-77
2024/01/11 01:27:37;;;;;;;9.95;4.40;;;;;;;3.18;100.00;103161.56;5019424;28;20391;-77
2024/01/11 01:30:04;;;;;;;7.95;4.25;;;;;;;3.17;100.00;103166.94;5019327;28;20029;-77
2024/01/11 01:32:30;;;;;;;7.43;4.63;;;;;;;3.21;100.00;103168.53;5019405;28;20037;-77
2024/01/11 01:34:56;;;;;;;9.45;5.30;;;;;;;3.21;100.00;103164.06;5035556;28;20033;-77
2024/01/11 01:37:22;;;;;;;8.07;5.60;;;;;;;3.21;100.00;103158.75;5019280;28;20119;-77
2024/01/11 01:39:48;;;;;;;11.27;6.85;;;;;;;3.21;100.00;103165.88;5022558;28;20460;-77
2024/01/11 01:42:13;;;;;;;9.45;5.88;;;;;;;3.19;100.00;103157.09;5023153;28;20041;-77
2024/01/11 01:44:41;;;;;;;10.75;7.00;;;;;;;3.17;100.00;103174.91;5039482;28;20116;-77
2024/01/11 01:47:07;;;;;;;11.90;6.70;;;;;;;3.14;100.00;103169.72;5023582;28;20110;-77
2024/01/11 01:49:33;;;;;;;12.18;5.15;;;;;;;3.08;100.00;103174.38;5039015;28;20033;-77
2024/01/11 01:51:59;;;;;;;154.07;40.78;;;;;;;3.04;100.00;103174.59;5038867;28;20037;-77
2024/01/11 01:54:25;;;;;;;82.10;26.70;;;;;;;3.00;100.00;103175.66;5038798;28;20482;-77
2024/01/11 01:56:51;;;;;;;21.70;9.50;;;;;;;2.95;100.00;103169.69;5022816;28;20041;-77
2024/01/11 01:59:18;;;;;;;12.82;7.20;;;;;;;2.92;100.00;103169.81;5022559;28;20376;-77
2024/01/11 02:01:43;;;;;;;8.18;4.30;;;;;;;2.90;100.00;103172.53;5022616;28;20039;-77
2024/01/11 02:04:09;;;;;;;17.95;6.97;;;;;;;2.86;100.00;103171.81;5023192;28;20033;-77
2024/01/11 02:06:35;;;;;;;12.32;5.53;;;;;;;2.82;100.00;103180.84;5022719;28;20388;-77
2024/01/11 02:09:03;;;;;;;11.35;6.10;;;;;;;2.78;100.00;103178.38;5022569;28;20067;-77
2024/01/11 02:11:30;;;;;;;13.65;6.72;;;;;;;2.74;100.00;103180.31;5055458;28;20039;-77
2024/01/11 02:13:57;;;;;;;8.35;6.13;;;;;;;2.69;100.00;103179.63;5038532;28;20063;-76
2024/01/11 02:16:23;;;;;;;10.40;5.50;;;;;;;2.64;100.00;103177.16;5039188;28;20467;-77
2024/01/11 02:18:49;;;;;;;10.35;5.82;;;;;;;2.61;100.00;103176.44;5039098;28;20044;-77
2024/01/11 02:21:15;;;;;;;10.25;4.95;;;;;;;2.59;100.00;103172.97;5022699;28;20361;-77
2024/01/11 02:24:01;;;;;;;8.77;5.20;;;;;;;2.59;100.00;103179.19;5022308;28;20251;-77
2024/01/11 02:26:27;;;;;;;9.90;5.05;;;;;;;2.62;100.00;103176.38;5039314;28;20102;-77
2024/01/11 02:28:53;;;;;;;11.30;5.25;;;;;;;2.59;100.00;103179.19;5054818;28;20450;-77
2024/01/11 02:31:19;;;;;;;5.22;3.65;;;;;;;2.57;100.00;103183.69;5022221;28;20452;-77
2024/01/11 02:33:44;;;;;;;8.32;4.25;;;;;;;2.56;100.00;103189.91;5022047;28;20451;-77
2024/01/11 02:36:10;;;;;;;6.40;5.03;;;;;;;2.54;100.00;103189.13;5038463;28;20372;-77
2024/01/11 02:38:37;;;;;;;9.95;5.22;;;;;;;2.52;100.00;103195.44;5022670;28;20029;-77
2024/01/11 02:41:03;;;;;;;8.02;5.05;;;;;;;2.48;100.00;103194.69;5021908;28;20033;-77
2024/01/11 02:43:28;;;;;;;8.88;5.25;;;;;;;2.46;100.00;103203.63;5037872;28;20057;-77
2024/01/11 02:45:55;;;;;;;8.52;5.32;;;;;;;2.41;100.00;103207.34;5038353;28;20565;-77
2024/01/11 02:48:21;;;;;;;6.95;4.72;;;;;;;2.39;100.00;103203.03;5022136;28;20033;-77
2024/01/11 02:50:48;;;;;;;8.05;4.85;;;;;;;2.35;100.00;103206.72;5037173;28;20178;-77
2024/01/11 02:53:15;;;;;;;11.02;4.93;;;;;;;2.33;100.00;103211.22;5037881;28;20112;-77
2024/01/11 02:55:40;;;;;;;8.63;4.88;;;;;;;2.33;100.00;103219.19;5021709;28;20124;-77
2024/01/11 02:58:06;;;;;;;7.32;5.15;;;;;;;2.32;100.00;103217.47;5021733;28;20060;-77
2024/01/11 03:00:32;;;;;;;8.85;5.80;;;;;;;2.29;100.00;103218.47;5021617;28;20482;-77
2024/01/11 03:02:57;;;;;;;7.05;4.18;;;;;;;2.28;100.00;103213.22;5021621;28;20455;-77
2024/01/11 03:05:23;;;;;;;6.97;4.20;;;;;;;2.30;100.00;103214.00;5021502;28;20071;-77
2024/01/11 03:07:49;;;;;;;8.43;5.20;;;;;;;2.27;100.00;103217.66;5038409;28;20064;-77
2024/01/11 03:10:17;;;;;;;6.80;4.80;;;;;;;2.26;100.00;103228.34;5037923;28;20468;-77
2024/01/11 03:12:44;;;;;;;7.25;4.88;;;;;;;2.23;100.00;103225.81;5021677;28;20025;-78
2024/01/11 03:15:10;;;;;;;7.82;5.18;;;;;;;2.17;100.00;103219.84;5037421;28;20060;-76
2024/01/11 03:17:35;;;;;;;7.82;5.03;;;;;;;2.15;100.00;103226.13;5021236;28;20056;-76
2024/01/11 03:20:03;;;;;;;7.55;4.75;;;;;;;2.11;100.00;103224.50;5021317;28;20036;-76
2024/01/11 03:22:29;;;;;;;8.23;5.20;;;;;;;2.13;100.00;103227.97;5021498;28;20025;-77
2024/01/11 03:24:54;;;;;;;8.02;4.70;;;;;;;2.14;100.00;103224.38;5037612;28;20039;-76
2024/01/11 03:27:20;;;;;;;7.28;4.63;;;;;;;2.13;100.00;103217.34;5053731;28;20087;-76
2024/01/11 03:29:46;;;;;;;6.72;4.35;;;;;;;2.14;100.00;103224.38;5021134;28;20041;-77
2024/01/11 03:32:13;;;;;;;5.88;3.78;;;;;;;2.13;100.00;103223.53;5021162;28;20047;-76
2024/01/11 03:34:39;;;;;;;7.63;4.30;;;;;;;2.13;100.00;103223.53;5037464;28;20056;-76
2024/01/11 03:37:05;;;;;;;7.88;4.20;;;;;;;2.16;100.00;103231.34;5021461;28;20406;-77
2024/01/11 03:39:31;;;;;;;7.18;4.70;;;;;;;2.14;100.00;103238.53;5021446;28;20033;-77
2024/01/11 03:41:56;;;;;;;5.82;4.15;;;;;;;2.15;100.00;103232.28;5004829;28;20036;-76
2024/01/11 03:44:22;;;;;;;8.02;4.90;;;;;;;2.15;100.00;103240.25;5020775;28;20029;-76
2024/01/11 03:46:48;;;;;;;8.05;5.25;;;;;;;2.14;100.00;103241.19;5020712;28;20029;-77
2024/01/11 03:49:14;;;;;;;7.55;4.15;;;;;;;2.16;100.00;103244.63;5020657;28;20040;-76
2024/01/11 03:51:39;;;;;;;8.45;5.72;;;;;;;2.17;100.00;103245.50;5036701;28;20025;-76
2024/01/11 03:54:05;;;;;;;7.93;4.80;;;;;;;2.15;100.00;103237.59;5036889;28;20498;-77
2024/01/11 03:56:31;;;;;;;8.80;6.10;;;;;;;2.16;100.00;103233.16;5004317;28;20040;-76
2024/01/11 03:58:57;;;;;;;8.48;5.22;;;;;;;2.31;100.00;103227.25;5053283;28;20025;-76
2024/01/11 04:01:22;;;;;;;9.55;5.40;;;;;;;2.44;100.00;103234.72;5036733;28;20379;-76
2024/01/11 04:03:49;;;;;;;7.25;4.50;;;;;;;2.49;100.00;103228.28;5020448;28;20029;-77
2024/01/11 04:06:24;;;;;;;9.13;5.03;;;;;;;2.48;100.00;103225.69;5020566;28;20071;-76
2024/01/11 04:09:30;;;;;;;8.00;4.97;;;;;;;2.45;100.00;103225.81;5036708;28;20179;-77
2024/01/11 04:11:56;;;;;;;6.97;4.85;;;;;;;2.41;100.00;103227.75;5054022;28;20141;-77
2024/01/11 04:14:22;;;;;;;6.55;4.47;;;;;;;2.37;100.00;103232.28;5020829;28;20459;-76
2024/01/11 04:16:47;;;;;;;4.78;3.58;;;;;;;2.46;100.00;103227.53;5020233;28;20439;-77
2024/01/11 04:19:13;;;;;;;6.18;4.20;;;;;;;2.58;100.00;103227.03;5036640;28;20033;-77
2024/01/11 04:21:39;;;;;;;6.13;3.60;;;;;;;2.73;100.00;103215.78;5020182;28;20071;-76
2024/01/11 04:24:08;;;;;;;8.02;4.07;;;;;;;2.87;100.00;103217.84;5020918;28;20460;-77
2024/01/11 04:26:34;;;;;;;7.72;3.92;;;;;;;2.87;100.00;103231.13;5020208;28;20391;-76
2024/01/11 04:29:00;;;;;;;6.18;3.92;;;;;;;2.79;100.00;103225.28;5020095;28;20041;-76
2024/01/11 04:31:29;;;;;;;6.47;3.90;;;;;;;2.82;100.00;103222.50;5036206;28;20496;-76
2024/01/11 04:33:54;;;;;;;6.85;3.92;;;;;;;2.92;100.00;103229.16;5019764;28;20037;-76
2024/01/11 04:36:20;;;;;;;6.88;4.10;;;;;;;3.05;100.00;103227.69;5019907;28;20460;-76
2024/01/11 04:38:46;;;;;;;8.43;3.88;;;;;;;3.09;100.00;103241.72;5036192;28;20032;-77
2024/01/11 04:41:12;;;;;;;5.85;3.80;;;;;;;3.14;100.00;103239.72;5036821;28;20041;-76
2024/01/11 04:43:41;;;;;;;5.07;3.60;;;;;;;3.17;100.00;103238.72;5019437;28;20042;-76
2024/01/11 04:46:25;;;;;;;6.50;2.90;;;;;;;3.14;100.00;103230.88;5052806;28;20033;-76
2024/01/11 04:48:51;;;;;;;5.32;3.38;;;;;;;3.12;100.00;103227.41;5019809;28;20033;-76
2024/01/11 04:51:17;;;;;;;4.10;3.40;;;;;;;3.09;100.00;103226.63;5019658;28;20040;-76
2024/01/11 04:53:44;;;;;;;6.80;3.40;;;;;;;3.05;100.00;103235.66;5019560;28;20037;-76
2024/01/11 04:56:15;;;;;;;4.90;3.15;;;;;;;2.97;100.00;103231.63;5019164;28;20047;-76
2024/01/11 04:58:41;;;;;;;5.15;2.72;;;;;;;2.94;100.00;103232.63;5019633;28;20064;-76
2024/01/11 05:01:15;;;;;;;5.97;3.55;;;;;;;2.90;100.00;103230.16;5019590;28;20045;-76
2024/01/11 05:03:46;;;;;;;5.43;2.85;;;;;;;2.95;100.00;103244.09;5036112;28;20036;-76
2024/01/11 05:06:18;;;;;;;6.38;3.55;;;;;;;2.97;100.00;103237.78;5020039;28;20047;-76
2024/01/11 05:08:46;;;;;;;4.45;3.05;;;;;;;3.04;100.00;103235.72;5035810;28;20052;-76
2024/01/11 05:11:19;;;;;;;5.00;3.00;;;;;;;3.11;100.00;103242.50;5003354;28;20241;-76
2024/01/11 05:13:48;;;;;;;5.22;3.13;;;;;;;3.16;100.00;103234.34;5005118;28;20029;-76
2024/01/11 05:16:24;;;;;;;5.22;3.05;;;;;;;3.27;100.00;103238.25;5039859;28;20072;-77
2024/01/11 05:18:51;;;;;;;3.25;2.45;;;;;;;3.27;100.00;103229.41;5039516;28;20041;-76
2024/01/11 05:21:21;;;;;;;4.25;3.13;;;;;;;3.42;100.00;103249.16;5023820;28;20033;-77
2024/01/11 05:23:46;;;;;;;4.65;2.63;;;;;;;3.47;100.00;103250.69;5023220;28;20047;-77
2024/01/11 05:26:14;;;;;;;6.70;3.30;;;;;;;3.44;100.00;103253.47;5023378;28;20136;-77
2024/01/11 05:28:40;;;;;;;3.83;2.78;;;;;;;3.39;100.00;103250.16;5039644;28;20071;-77
2024/01/11 05:31:09;;;;;;;3.28;2.20;;;;;;;3.35;100.00;103253.88;5023252;28;20076;-76
2024/01/11 05:33:34;;;;;;;4.07;2.90;;;;;;;3.34;100.00;103254.81;5023204;28;20033;-77
2024/01/11 05:36:00;;;;;;;4.80;2.80;;;;;;;3.29;100.00;103257.66;5023236;28;20040;-77
2024/01/11 05:38:26;;;;;;;4.68;2.78;;;;;;;3.33;100.00;103266.38;5056072;28;20056;-77
2024/01/11 05:40:51;;;;;;;5.45;2.67;;;;;;;3.32;100.00;103259.31;5023743;28;20154;-76
2024/01/11 05:43:17;;;;;;;3.72;2.35;;;;;;;3.30;100.00;103266.50;5055722;28;20400;-76
2024/01/11 05:45:42;;;;;;;3.92;2.30;;;;;;;3.28;100.00;103265.69;5023071;28;20379;-76
2024/01/11 05:48:10;;;;;;;8.45;2.85;;;;;;;3.32;100.00;103261.97;5023051;28;20467;-77
2024/01/11 05:50:36;;;;;;;5.70;2.63;;;;;;;3.36;100.00;103260.94;5055854;28;20033;-77
2024/01/11 05:53:01;;;;;;;5.15;2.50;;;;;;;3.36;100.00;103260.94;5022889;28;20044;-76
2024/01/11 05:55:27;;;;;;;3.95;2.55;;;;;;;3.35;100.00;103268.97;5038941;28;20075;-77
2024/01/11 05:57:53;;;;;;;3.97;2.47;;;;;;;3.32;100.00;103267.31;5055415;28;20025;-76
2024/01/11 06:00:18;;;;;;;7.75;2.78;;;;;;;3.34;100.00;103272.56;5022778;28;20502;-76
2024/01/11 06:02:44;;;;;;;3.85;2.08;;;;;;;3.35;100.00;103274.28;5039171;28;20471;-77
2024/01/11 06:05:12;;;;;;;5.00;2.50;;;;;;;3.39;100.00;103265.25;5023237;28;20033;-77
2024/01/11 06:07:38;;;;;;;5.60;2.70;;;;;;;3.38;100.00;103258.19;5022866;28;20039;-76
2024/01/11 06:10:05;;;;;;;3.47;2.45;;;;;;;3.41;100.00;103274.00;5022557;28;20033;-76
2024/01/11 06:12:32;;;;;;;4.25;3.10;;;;;;;3.38;100.00;103279.47;5055668;28;20033;-77
2024/01/11 06:14:57;;;;;;;3.22;2.20;;;;;;;3.46;100.00;103275.53;5038492;28;20033;-77
2024/01/11 06:17:23;;;;;;;4.55;2.45;;;;;;;3.52;100.00;103277.94;5054993;28;20036;-76
2024/01/11 06:19:49;;;;;;;2.97;2.08;;;;;;;3.57;100.00;103282.16;5055762;28;20041;-77
2024/01/11 06:22:15;;;;;;;3.33;2.38;;;;;;;3.61;100.00;103276.66;5022272;28;20037;-77
2024/01/11 06:24:41;;;;;;;4.57;2.65;;;;;;;3.61;100.00;103281.13;5021990;28;20021;-77
2024/01/11 06:27:06;;;;;;;4.65;2.65;;;;;;;3.63;100.00;103279.25;5022150;28;20029;-77
2024/01/11 06:29:32;;;;;;;4.10;2.45;;;;;;;3.62;100.00;103288.16;5054828;28;20073;-76
2024/01/11 06:31:58;;;;;;;4.28;2.08;;;;;;;3.59;100.00;103291.81;5022384;28;20076;-76
2024/01/11 06:34:23;;;;;;;4.78;2.60;;;;;;;3.61;100.00;103291.75;5021996;28;20086;-77
2024/01/11 06:36:49;;;;;;;4.60;2.45;;;;;;;3.62;100.00;103291.66;5038490;28;20037;-77
2024/01/11 06:39:15;;;;;;;4.13;2.35;;;;;;;3.66;100.00;103301.25;5022097;28;20123;-77
2024/01/11 06:42:14;;;;;;;3.65;2.10;;;;;;;3.66;100.00;103300.41;5022033;28;20052;-77
2024/01/11 06:44:50;;;;;;;4.97;2.65;;;;;;;3.60;100.00;103295.34;5039569;28;20124;-77
2024/01/11 06:47:16;;;;;;;4.95;2.50;;;;;;;3.63;100.00;103319.16;5021882;28;20175;-76
2024/01/11 06:49:42;;;;;;;3.85;2.40;;;;;;;3.61;100.00;103324.53;5056216;28;20041;-77
2024/01/11 06:52:07;;;;;;;4.55;2.65;;;;;;;3.65;100.00;103328.81;5054497;28;20025;-77
2024/01/11 06:54:33;;;;;;;4.07;2.20;;;;;;;3.67;100.00;103336.72;5038004;28;20025;-77
2024/01/11 06:56:59;;;;;;;2.85;2.15;;;;;;;3.66;100.00;103342.97;5038214;28;20041;-76
2024/01/11 06:59:24;;;;;;;3.88;2.33;;;;;;;3.59;100.00;103345.03;5021727;28;20036;-76
2024/01/11 07:01:50;;;;;;;3.25;2.10;;;;;;;3.53;100.00;103348.81;5022213;28;20072;-77
2024/01/11 07:04:16;;;;;;;4.32;2.60;;;;;;;3.46;100.00;103350.00;5037950;28;20095;-76
2024/01/11 07:06:42;;;;;;;4.15;2.10;;;;;;;3.40;100.00;103352.94;5037729;28;20045;-77
2024/01/11 07:09:08;;;;;;;3.05;2.20;;;;;;;3.33;100.00;103356.78;5037974;28;20074;-76
2024/01/11 07:11:33;;;;;;;4.15;2.10;;;;;;;3.28;100.00;103349.03;5054338;28;20099;-77
2024/01/11 07:14:02;;;;;;;3.38;2.25;;;;;;;3.27;100.00;103352.59;5021274;28;20036;-76
2024/01/11 07:16:27;;;;;;;3.95;2.45;;;;;;;3.24;100.00;103371.34;5021621;28;20574;-77
2024/01/11 07:18:53;;;;;;;4.43;2.10;;;;;;;3.18;100.00;103362.75;5037696;28;20123;-77
2024/01/11 07:21:31;;;;;;;3.03;2.30;;;;;;;3.12;100.00;103361.19;5037757;28;20060;-77
2024/01/11 07:24:00;;;;;;;3.67;2.20;;;;;;;3.08;100.00;103357.81;5038699;28;20032;-76
2024/01/11 07:26:27;;;;;;;3.60;2.30;;;;;;;3.13;100.00;103364.75;5037611;28;20498;-77
2024/01/11 07:28:54;;;;;;;3.05;2.15;;;;;;;3.20;100.00;103368.84;5037454;28;20060;-77
2024/01/11 07:31:21;;;;;;;4.95;2.47;;;;;;;3.21;100.00;103374.13;5037414;28;20041;-77
2024/01/11 07:33:47;;;;;;;4.50;2.25;;;;;;;3.15;100.00;103369.06;5021043;28;20033;-77
2024/01/11 07:36:12;;;;;;;3.65;2.67;;;;;;;3.13;100.00;103383.34;5021318;28;20033;-77
2024/01/11 07:38:38;;;;;;;3.72;2.40;;;;;;;3.07;100.00;103376.50;5020869;28;20539;-77
2024/01/11 07:41:04;;;;;;;3.22;2.33;;;;;;;3.05;100.00;103387.19;5020888;28;20036;-76
2024/01/11 07:43:31;;;;;;;4.45;2.50;;;;;;;3.01;100.00;103387.38;5020823;28;20041;-76
2024/01/11 07:45:57;;;;;;;4.60;2.60;;;;;;;3.00;100.00;103385.66;5037511;28;20025;-77
2024/01/11 07:48:23;;;;;;;4.75;2.80;;;;;;;2.95;100.00;103388.47;5020826;28;20044;-76
2024/01/11 07:50:49;;;;;;;4.63;2.70;;;;;;;2.96;100.00;103392.00;5020470;28;20467;-77
2024/01/11 07:53:14;;;;;;;3.28;2.13;;;;;;;2.98;100.00;103398.13;5020652;28;20037;-77
2024/01/11 07:55:41;;;;;;;3.30;2.40;;;;;;;3.02;100.00;103405.91;5036758;28;20039;-76
2024/01/11 07:58:07;;;;;;;5.13;2.45;;;;;;;3.04;100.00;103404.06;5020433;28;20095;-77
2024/01/11 08:00:33;;;;;;;5.80;2.10;;;;;;;3.06;100.00;103409.31;5036602;28;20029;-76
2024/01/11 08:02:59;;;;;;;3.20;2.30;;;;;;;3.06;100.00;103410.16;5020131;28;20036;-77
2024/01/11 08:05:25;;;;;;;6.85;2.67;;;;;;;3.04;100.00;103412.03;5036922;28;20038;-76
2024/01/11 08:07:51;;;;;;;3.97;2.65;;;;;;;3.04;100.00;103420.03;5020293;28;20037;-76
2024/01/11 08:10:17;;;;;;;3.53;2.70;;;;;;;3.03;100.00;103420.94;5036685;28;20048;-76
2024/01/11 08:12:43;;;;;;;5.47;2.47;;;;;;;3.00;100.00;103423.72;5020981;28;20033;-76
2024/01/11 08:15:15;;;;;;;5.68;2.50;;;;;;;3.00;100.00;103429.03;5020073;28;20452;-76
2024/01/11 08:17:47;;;;;;;4.18;2.53;;;;;;;3.01;100.00;103435.19;5036640;28;20028;-77
2024/01/11 08:20:13;;;;;;;3.47;2.33;;;;;;;3.00;100.00;103441.47;5020160;28;20047;-76
2024/01/11 08:22:43;;;;;;;4.43;2.28;;;;;;;2.95;100.00;103438.97;5020246;28;20123;-76
2024/01/11 08:25:09;;;;;;;3.85;2.35;;;;;;;2.92;100.00;103443.56;5020143;28;20021;-76
2024/01/11 08:27:36;;;;;;;3.42;2.28;;;;;;;2.89;100.00;103441.03;5019969;28;20024;-76
2024/01/11 08:30:02;;;;;;;3.92;2.40;;;;;;;2.85;100.00;103457.06;5036860;28;20459;-76
2024/01/11 08:32:28;;;;;;;4.30;2.40;;;;;;;2.84;100.00;103454.47;5020342;28;20052;-76
2024/01/11 08:34:56;;;;;;;3.50;2.67;;;;;;;2.85;100.00;103454.41;5036124;28;20048;-76
2024/01/11 08:37:22;;;;;;;3.53;2.05;;;;;;;2.85;100.00;103456.19;5019926;28;20386;-76
2024/01/11 08:39:49;;;;;;;3.72;2.72;;;;;;;2.85;100.00;103459.72;5019982;28;20043;-77
2024/01/11 08:42:15;;;;;;;3.65;2.58;;;;;;;2.86;100.00;103464.13;5035975;28;20035;-77
2024/01/11 08:44:42;;;;;;;3.97;2.55;;;;;;;2.82;100.00;103459.84;5052644;28;20490;-77
2024/01/11 08:47:09;;;;;;;4.20;2.30;;;;;;;2.83;100.00;103464.25;5035408;28;20029;-76
2024/01/11 08:49:39;;;;;;;2.90;2.10;;;;;;;2.88;100.00;103471.16;5035159;28;20028;-77
2024/01/11 08:52:05;;;;;;;4.32;2.50;;;;;;;2.88;100.00;103471.16;5019745;28;20371;-76
2024/01/11 08:54:32;;;;;;;3.58;2.13;;;;;;;2.89;100.00;103467.59;5052345;28;20378;-77
2024/01/11 08:56:58;;;;;;;4.78;2.05;;;;;;;3.03;100.00;103476.75;5035843;28;20534;-76
2024/01/11 08:59:25;;;;;;;3.15;2.10;;;;;;;3.08;100.00;103472.13;5019453;28;20076;-77
2024/01/11 09:01:54;;;;;;;2.85;1.88;;;;;;;3.06;100.00;103489.91;5019582;28;20135;-77
2024/01/11 09:04:20;;;;;;;2.42;1.77;;;;;;;3.04;100.00;103486.47;5035882;28;20031;-76
2024/01/11 09:06:45;;;;;;;5.05;1.83;;;;;;;3.16;100.00;103493.09;5019452;28;20132;-76
2024/01/11 09:09:13;;;;;;;2.53;1.83;;;;;;;3.20;100.00;103484.09;5019471;28;20048;-76
2024/01/11 09:11:39;;;;;;;3.80;1.92;;;;;;;3.23;100.00;103491.94;5019314;28;20377;-77
2024/01/11 09:14:06;;;;;;;3.10;1.90;;;;;;;3.27;100.00;103490.00;5036079;28;20361;-76
2024/01/11 09:16:32;;;;;;;3.85;1.92;;;;;;;3.33;100.00;103502.19;5052124;28;20104;-76
2024/01/11 09:19:00;;;;;;;2.97;1.80;;;;;;;3.37;100.00;103496.69;5019362;28;20557;-76
2024/01/11 09:21:26;;;;;;;3.97;2.10;;;;;;;3.41;100.00;103490.31;5035751;28;20051;-76
2024/01/11 09:23:52;;;;;;;4.05;2.00;;;;;;;3.44;100.00;103497.28;5019315;28;20024;-76
2024/01/11 09:26:17;;;;;;;2.72;1.67;;;;;;;3.46;100.00;103498.97;5051971;28;20108;-76
2024/01/11 09:28:43;;;;;;;3.00;1.70;;;;;;;3.56;100.00;103507.44;5035530;28;20032;-77
2024/01/11 09:31:09;;;;;;;3.63;1.85;;;;;;;3.62;100.00;103506.31;5019105;28;20376;-76
2024/01/11 09:33:34;;;;;;;3.58;1.90;;;;;;;3.72;100.00;103507.69;5019127;28;20079;-77
2024/01/11 09:36:00;;;;;;;2.38;1.48;;;;;;;3.86;100.00;103513.28;5035641;28;20037;-77
2024/01/11 09:38:26;;;;;;;3.42;1.65;;;;;;;3.99;100.00;103516.28;5035575;28;20029;-77
2024/01/11 09:41:09;;;;;;;4.75;1.88;;;;;;;4.15;100.00;103517.41;5051962;28;20495;-76
2024/01/11 09:43:36;;;;;;;2.53;1.67;;;;;;;4.27;100.00;103508.00;5051630;28;20103;-77
2024/01/11 09:46:05;;;;;;;3.00;1.50;;;;;;;4.34;100.00;103514.78;5019149;28;20071;-76
2024/01/11 09:48:33;;;;;;;4.63;1.70;;;;;;;4.38;100.00;103520.84;5019107;28;20065;-76
2024/01/11 09:50:59;;;;;;;5.80;1.50;;;;;;;4.44;100.00;103517.88;5019051;28;20033;-76
2024/01/11 09:53:26;;;;;;;3.05;1.65;;;;;;;4.46;100.00;103531.16;5003145;28;20037;-76
2024/01/11 09:55:53;;;;;;;5.05;1.52;;;;;;;4.47;100.00;103525.75;5035452;28;20029;-77
2024/01/11 09:58:20;;;;;;;4.05;1.60;;;;;;;4.52;100.00;103522.88;5019181;28;20098;-77
2024/01/11 10:00:47;;;;;;;3.65;1.70;;;;;;;4.61;100.00;103525.16;5055054;28;20521;-77
2024/01/11 10:03:12;;;;;;;3.03;1.60;;;;;;;4.72;100.00;103533.53;5039148;28;20036;-77
2024/01/11 10:05:39;;;;;;;1.98;1.50;;;;;;;4.81;100.00;103525.09;5039154;28;20039;-76
2024/01/11 10:08:05;;;;;;;2.67;1.80;;;;;;;4.91;100.00;103525.53;5022568;28;20056;-77
2024/01/11 10:10:31;;;;;;;5.13;2.20;;;;;;;5.02;100.00;103525.03;5038646;28;20036;-76
2024/01/11 10:12:57;;;;;;;3.35;1.52;;;;;;;5.11;100.00;103523.72;5022673;28;20183;-77
2024/01/11 10:15:24;;;;;;;4.10;1.60;;;;;;;5.22;100.00;103529.44;5022242;28;20133;-77
2024/01/11 10:17:50;;;;;;;6.68;2.15;;;;;;;5.31;100.00;103530.81;5038666;28;20079;-76
2024/01/11 10:20:16;;;;;;;4.72;1.80;;;;;;;5.40;100.00;103531.22;5038939;28;20029;-77
2024/01/11 10:22:44;;;;;;;5.10;2.22;;;;;;;5.46;100.00;103538.06;5038805;28;20490;-77
2024/01/11 10:25:13;;;;;;;4.00;2.92;;;;;;;5.55;100.00;103540.28;5055126;28;20033;-77
2024/01/11 10:27:44;;;;;;;5.93;4.05;;;;;;;5.54;100.00;103543.91;5022697;28;20033;-77
2024/01/11 10:30:16;;;;;;;5.15;2.88;;;;;;;5.66;100.00;103543.31;5054882;28;20039;-77
2024/01/11 10:32:43;;;;;;;6.05;3.30;;;;;;;5.64;100.00;103537.19;5039137;28;20040;-77
2024/01/11 10:35:09;;;;;;;4.63;2.95;;;;;;;5.59;100.00;103559.69;5021920;28;20174;-77
2024/01/11 10:37:38;;;;;;;4.05;2.65;;;;;;;5.51;100.00;103546.72;5055015;28;20045;-76
2024/01/11 10:40:15;;;;;;;4.95;2.88;;;;;;;5.41;100.00;103556.97;5038783;28;20033;-77
2024/01/11 10:42:43;;;;;;;7.10;3.42;;;;;;;5.24;100.00;103560.44;5024355;28;20182;-77
2024/01/11 10:45:17;;;;;;;35.45;18.38;;;;;;;5.26;100.00;103561.22;5038409;28;20124;-76
2024/01/11 10:48:04;;;;;;;35.58;19.83;;;;;;;5.48;100.00;103557.56;5037947;28;20102;-77
2024/01/11 10:50:30;;;;;;;18.67;12.02;;;;;;;5.65;100.00;103564.72;5054789;28;20037;-77
2024/01/11 10:53:03;;;;;;;9.77;6.75;;;;;;;5.83;100.00;103557.63;5038174;28;20025;-76
2024/01/11 10:55:34;;;;;;;7.00;4.30;;;;;;;6.03;100.00;103562.00;5037998;28;20032;-77
2024/01/11 10:58:01;;;;;;;8.98;5.32;;;;;;;6.23;100.00;103569.00;5004046;28;20392;-77
2024/01/11 11:00:28;;;;;;;24.38;13.38;;;;;;;6.35;100.00;103576.38;5036027;28;20028;-77
2024/01/11 11:02:55;;;;;;;36.33;18.70;;;;;;;6.40;100.00;103582.34;5019423;28;20128;-77
2024/01/11 11:05:22;;;;;;;4.50;3.50;;;;;;;6.51;100.00;103593.38;5035688;28;20036;-77
2024/01/11 11:07:51;;;;;;;5.75;2.60;;;;;;;6.64;100.00;103582.88;5035445;28;20071;-77
2024/01/11 11:10:18;;;;;;;9.10;7.63;;;;;;;6.74;100.00;103586.78;5035192;28;20037;-77
2024/01/11 11:12:46;;;;;;;13.52;8.73;;;;;;;6.78;100.00;103590.19;5002142;28;20376;-77
2024/01/11 11:15:12;;;;;;;31.67;16.65;;;;;;;6.77;100.00;103581.31;5002856;28;20485;-76
2024/01/11 11:17:39;;;;;;;27.92;15.68;;;;;;;6.74;100.00;103583.25;5004090;28;20037;-76
2024/01/11 11:20:13;;;;;;;12.15;7.53;;;;;;;6.63;100.00;103581.16;5005001;28;20052;-76
2024/01/11 11:22:40;;;;;;;6.70;3.13;;;;;;;6.55;100.00;103578.88;5023474;28;20132;-76
2024/01/11 11:25:09;;;;;;;6.20;3.20;;;;;;;6.53;100.00;103577.22;5037685;28;20036;-76